createdAt,value
2022-09-11T00:00:41.873Z,100.00
2022-09-11T00:03:08.293Z,100.00
2022-09-11T00:05:39.349Z,100.00
2022-09-11T00:08:07.721Z,100.00
2022-09-11T00:10:37.284Z,100.00
2022-09-11T00:13:04.247Z,100.00
2022-09-11T00:15:30.714Z,100.00
2022-09-11T00:17:57.110Z,100.00
2022-09-11T00:20:23.500Z,99.60
2022-09-11T00:22:49.911Z,98.41
2022-09-11T00:25:16.432Z,95.52
2022-09-11T00:27:42.808Z,88.21
2022-09-11T00:30:10.072Z,83.31
2022-09-11T00:32:36.449Z,80.81
2022-09-11T00:35:02.843Z,79.54
2022-09-11T00:37:29.217Z,75.82
2022-09-11T00:39:55.644Z,67.45
2022-09-11T00:42:22.036Z,63.64
2022-09-11T00:45:00.330Z,63.54
2022-09-11T00:47:26.776Z,64.43
2022-09-11T00:49:54.301Z,62.14
2022-09-11T00:52:27.156Z,63.01
2022-09-11T00:54:56.399Z,64.43
2022-09-11T00:57:24.553Z,65.22
2022-09-11T00:59:51.019Z,66.90
2022-09-11T01:02:18.960Z,66.46
2022-09-11T01:04:45.362Z,64.49
2022-09-11T01:07:12.541Z,65.66
2022-09-11T01:09:39.054Z,65.75
2022-09-11T01:12:14.852Z,66.63
2022-09-11T01:14:59.854Z,67.75
2022-09-11T01:18:00.304Z,69.19
2022-09-11T01:21:03.773Z,69.23
2022-09-11T01:23:39.396Z,63.84
2022-09-11T01:26:24.603Z,59.60
2022-09-11T01:29:02.171Z,57.75
2022-09-11T01:31:31.719Z,58.25
2022-09-11T01:34:00.167Z,56.88
2022-09-11T01:36:29.351Z,54.03
2022-09-11T01:38:58.116Z,39.13
2022-09-11T01:41:35.958Z,39.85
2022-09-11T01:44:36.481Z,41.29
2022-09-11T01:47:04.306Z,43.60
2022-09-11T01:49:49.301Z,41.94
2022-09-11T01:52:20.891Z,39.13
2022-09-11T01:54:51.132Z,36.70
2022-09-11T01:57:22.230Z,8.67
2022-09-11T01:59:50.932Z,0.00
2022-09-11T02:02:20.601Z,0.00
2022-09-11T02:04:50.079Z,0.00
2022-09-11T02:07:19.319Z,0.00
2022-09-11T02:09:57.274Z,0.00
2022-09-11T02:12:25.887Z,0.00
2022-09-11T02:14:53.367Z,0.00
2022-09-11T02:17:50.283Z,0.00
2022-09-11T02:20:16.741Z,0.00
2022-09-11T02:22:43.230Z,0.00
2022-09-11T02:25:09.787Z,0.00
2022-09-11T02:27:36.996Z,0.00
2022-09-11T02:30:03.724Z,0.00
2022-09-11T02:32:30.151Z,0.00
2022-09-11T02:34:56.551Z,0.00
2022-09-11T02:37:41.668Z,0.00
2022-09-11T02:40:39.568Z,12.86
2022-09-11T02:43:33.456Z,31.13
2022-09-11T02:46:31.022Z,47.66
2022-09-11T02:49:20.588Z,59.30
2022-09-11T02:51:54.191Z,62.47
2022-09-11T02:54:28.274Z,72.70
2022-09-11T02:57:02.234Z,76.60
2022-09-11T02:59:40.962Z,76.87
2022-09-11T03:02:10.314Z,76.23
2022-09-11T03:04:37.188Z,74.89
2022-09-11T03:07:03.680Z,78.56
2022-09-11T03:09:30.192Z,83.26
2022-09-11T03:11:56.611Z,88.68
2022-09-11T03:14:22.975Z,100.00
2022-09-11T03:16:49.985Z,100.00
2022-09-11T03:19:16.440Z,100.00
2022-09-11T03:21:42.955Z,100.00
2022-09-11T03:24:09.629Z,100.00
2022-09-11T03:26:36.817Z,100.00
2022-09-11T03:29:03.638Z,100.00
2022-09-11T03:31:30.205Z,100.00
2022-09-11T03:33:57.186Z,94.11
2022-09-11T03:36:23.846Z,86.47
2022-09-11T03:38:50.223Z,82.68
2022-09-11T03:41:16.604Z,84.08
2022-09-11T03:43:43.163Z,92.68
2022-09-11T03:46:09.717Z,95.42
2022-09-11T03:48:36.200Z,100.00
2022-09-11T03:51:04.711Z,100.00
2022-09-11T03:53:32.886Z,100.00
2022-09-11T03:56:00.294Z,100.00
2022-09-11T03:58:26.729Z,100.00
2022-09-11T04:00:53.161Z,100.00
2022-09-11T04:03:19.555Z,100.00
2022-09-11T04:05:56.688Z,100.00
2022-09-11T04:08:23.056Z,100.00
2022-09-11T04:10:49.442Z,100.00
2022-09-11T04:13:16.669Z,100.00
2022-09-11T04:15:43.086Z,100.00
2022-09-11T04:18:09.570Z,100.00
2022-09-11T04:20:38.822Z,100.00
2022-09-11T04:23:05.188Z,100.00
2022-09-11T04:25:31.565Z,100.00
2022-09-11T04:27:57.948Z,100.00
2022-09-11T04:30:24.395Z,100.00
2022-09-11T04:32:50.767Z,100.00
2022-09-11T04:35:17.167Z,100.00
2022-09-11T04:37:43.574Z,100.00
2022-09-11T04:40:10.184Z,100.00
2022-09-11T04:42:36.670Z,100.00
2022-09-11T04:45:04.509Z,100.00
2022-09-11T04:47:30.904Z,100.00
2022-09-11T04:49:57.407Z,100.00
2022-09-11T04:52:25.067Z,100.00
2022-09-11T04:54:51.456Z,100.00
2022-09-11T04:57:17.815Z,100.00
2022-09-11T04:59:44.202Z,100.00
2022-09-11T05:02:10.885Z,100.00
2022-09-11T05:04:37.347Z,100.00
2022-09-11T05:07:03.840Z,100.00
2022-09-11T05:09:30.268Z,100.00
2022-09-11T05:11:57.099Z,100.00
2022-09-11T05:14:23.503Z,100.00
2022-09-11T05:16:52.487Z,100.00
2022-09-11T05:19:19.061Z,100.00
2022-09-11T05:21:45.463Z,100.00
2022-09-11T05:24:11.842Z,100.00
2022-09-11T05:26:38.388Z,100.00
2022-09-11T05:29:09.701Z,100.00
2022-09-11T05:31:37.185Z,100.00
2022-09-11T05:34:03.768Z,100.00
2022-09-11T05:36:33.466Z,100.00
2022-09-11T05:38:59.889Z,100.00
2022-09-11T05:41:26.354Z,100.00
2022-09-11T05:43:52.759Z,100.00
2022-09-11T05:46:19.923Z,100.00
2022-09-11T05:48:46.382Z,100.00
2022-09-11T05:51:14.300Z,100.00
2022-09-11T05:53:41.001Z,100.00
2022-09-11T05:56:12.185Z,100.00
2022-09-11T05:58:38.584Z,100.00
2022-09-11T06:01:18.802Z,100.00
2022-09-11T06:03:47.348Z,100.00
2022-09-11T06:06:13.783Z,100.00
2022-09-11T06:08:42.668Z,100.00
2022-09-11T06:11:09.097Z,100.00
2022-09-11T06:13:39.431Z,100.00
2022-09-11T06:16:11.247Z,100.00
2022-09-11T06:18:39.934Z,100.00
2022-09-11T06:21:07.996Z,100.00
2022-09-11T06:23:35.189Z,100.00
2022-09-11T06:26:12.659Z,100.00
2022-09-11T06:28:39.436Z,100.00
2022-09-11T06:31:08.223Z,100.00
2022-09-11T06:33:36.152Z,100.00
2022-09-11T06:36:04.252Z,100.00
2022-09-11T06:38:31.875Z,100.00
2022-09-11T06:41:02.237Z,100.00
2022-09-11T06:43:28.806Z,100.00
2022-09-11T06:45:55.225Z,100.00
2022-09-11T06:48:21.636Z,100.00
2022-09-11T06:50:48.016Z,100.00
2022-09-11T06:53:15.206Z,100.00
2022-09-11T06:55:41.653Z,100.00
2022-09-11T06:58:08.489Z,100.00
2022-09-11T07:00:36.106Z,100.00
2022-09-11T07:03:03.464Z,100.00
2022-09-11T07:05:30.069Z,100.00
2022-09-11T07:07:56.648Z,100.00
2022-09-11T07:10:23.281Z,100.00
2022-09-11T07:12:52.018Z,100.00
2022-09-11T07:15:18.503Z,100.00
2022-09-11T07:17:44.894Z,100.00
2022-09-11T07:20:11.376Z,100.00
2022-09-11T07:22:38.239Z,100.00
2022-09-11T07:25:07.693Z,100.00
2022-09-11T07:27:34.295Z,100.00
2022-09-11T07:30:00.670Z,100.00
2022-09-11T07:32:27.192Z,100.00
2022-09-11T07:34:53.630Z,100.00
2022-09-11T07:37:20.030Z,100.00
2022-09-11T07:39:47.086Z,100.00
2022-09-11T07:42:13.533Z,100.00
2022-09-11T07:44:39.941Z,100.00
2022-09-11T07:47:06.592Z,100.00
2022-09-11T07:49:32.951Z,100.00
2022-09-11T07:51:59.349Z,100.00
2022-09-11T07:54:29.019Z,100.00
2022-09-11T07:56:56.067Z,100.00
2022-09-11T07:59:22.863Z,100.00
2022-09-11T08:01:50.199Z,100.00
2022-09-11T08:04:16.666Z,100.00
2022-09-11T08:06:43.055Z,100.00
2022-09-11T08:09:11.289Z,100.00
2022-09-11T08:11:43.011Z,100.00
2022-09-11T08:14:11.680Z,100.00
2022-09-11T08:16:38.790Z,100.00
2022-09-11T08:19:05.614Z,100.00
2022-09-11T08:21:32.155Z,100.00
2022-09-11T08:23:58.583Z,100.00
2022-09-11T08:26:26.434Z,100.00
2022-09-11T08:28:53.822Z,100.00
2022-09-11T08:31:21.909Z,100.00
2022-09-11T08:33:49.286Z,100.00
2022-09-11T08:36:15.763Z,100.00
2022-09-11T08:38:43.256Z,100.00
2022-09-11T08:41:11.039Z,100.00
2022-09-11T08:43:39.721Z,100.00
2022-09-11T08:46:07.612Z,100.00
2022-09-11T08:49:02.192Z,100.00
2022-09-11T08:51:28.577Z,100.00
2022-09-11T08:53:55.024Z,100.00
2022-09-11T08:56:22.561Z,100.00
2022-09-11T08:59:45.960Z,100.00
2022-09-11T09:02:18.361Z,100.00
2022-09-11T09:05:14.509Z,100.00
2022-09-11T09:07:45.178Z,100.00
2022-09-11T09:10:33.631Z,100.00
2022-09-11T09:13:20.830Z,92.54
2022-09-11T09:15:53.249Z,86.24
2022-09-11T09:18:34.683Z,84.83
2022-09-11T09:21:06.682Z,81.10
2022-09-11T09:23:37.793Z,79.86
2022-09-11T09:26:04.168Z,79.65
2022-09-11T09:28:52.697Z,78.24
2022-09-11T09:31:23.005Z,76.21
2022-09-11T09:34:00.354Z,74.42
2022-09-11T09:36:43.509Z,71.93
2022-09-11T09:39:12.813Z,63.96
2022-09-11T09:41:59.060Z,53.27
2022-09-11T09:44:50.437Z,52.54
2022-09-11T09:47:16.867Z,57.63
2022-09-11T09:49:43.493Z,47.28
2022-09-11T09:52:24.281Z,35.54
2022-09-11T09:55:00.047Z,30.66
2022-09-11T09:57:29.151Z,26.17
2022-09-11T10:00:06.647Z,29.38
2022-09-11T10:02:49.069Z,19.95
2022-09-11T10:05:16.976Z,10.80
2022-09-11T10:07:50.894Z,13.36
2022-09-11T10:10:29.602Z,12.54
2022-09-11T10:13:17.717Z,6.99
2022-09-11T10:15:44.063Z,0.45
2022-09-11T10:18:29.031Z,3.37
2022-09-11T10:21:22.474Z,5.69
2022-09-11T10:23:50.455Z,1.88
2022-09-11T10:26:18.800Z,12.75
2022-09-11T10:28:46.310Z,30.84
2022-09-11T10:31:18.745Z,17.32
2022-09-11T10:33:56.652Z,48.16
2022-09-11T10:36:25.039Z,53.49
2022-09-11T10:38:51.891Z,50.66
2022-09-11T10:41:34.132Z,48.97
2022-09-11T10:44:02.311Z,49.28
2022-09-11T10:46:29.974Z,48.58
2022-09-11T10:49:06.074Z,48.51
2022-09-11T10:51:42.136Z,46.94
2022-09-11T10:54:16.747Z,47.67
2022-09-11T10:56:57.820Z,45.09
2022-09-11T10:59:31.232Z,45.39
2022-09-11T11:01:58.222Z,43.84
2022-09-11T11:04:25.068Z,48.54
2022-09-11T11:07:07.896Z,47.09
2022-09-11T11:09:40.922Z,47.33
2022-09-11T11:12:20.646Z,44.01
2022-09-11T11:15:04.912Z,69.28
2022-09-11T11:17:55.685Z,72.78
2022-09-11T11:20:48.397Z,76.27
2022-09-11T11:23:21.297Z,73.04
2022-09-11T11:26:11.640Z,70.92
2022-09-11T11:28:44.128Z,91.48
2022-09-11T11:31:52.816Z,100.00
2022-09-11T11:34:22.258Z,100.00
2022-09-11T11:36:54.009Z,100.00
2022-09-11T11:39:38.847Z,100.00
2022-09-11T11:42:26.873Z,100.00
2022-09-11T11:45:00.300Z,100.00
2022-09-11T11:47:30.613Z,100.00
2022-09-11T11:50:05.281Z,100.00
2022-09-11T11:52:31.804Z,100.00
2022-09-11T11:55:12.395Z,100.00
2022-09-11T11:57:41.555Z,100.00
2022-09-11T12:00:13.098Z,100.00
2022-09-11T12:02:56.397Z,100.00
2022-09-11T12:05:27.505Z,100.00
2022-09-11T12:07:53.903Z,100.00
2022-09-11T12:10:26.261Z,100.00
2022-09-11T12:12:55.209Z,100.00
2022-09-11T12:15:25.992Z,100.00
2022-09-11T12:18:24.841Z,100.00
2022-09-11T12:20:51.386Z,100.00
2022-09-11T12:23:29.913Z,100.00
2022-09-11T12:26:26.035Z,100.00
2022-09-11T12:29:14.510Z,100.00
2022-09-11T12:31:49.784Z,100.00
2022-09-11T12:34:17.448Z,100.00
2022-09-11T12:36:48.264Z,100.00
2022-09-11T12:39:54.628Z,100.00
2022-09-11T12:42:24.024Z,100.00
2022-09-11T12:44:50.429Z,100.00
2022-09-11T12:47:27.424Z,100.00
2022-09-11T12:50:16.134Z,100.00
2022-09-11T12:52:45.541Z,100.00
2022-09-11T12:55:27.075Z,100.00
2022-09-11T12:57:53.458Z,100.00
2022-09-11T13:00:24.470Z,100.00
2022-09-11T13:02:53.232Z,100.00
2022-09-11T13:05:30.089Z,100.00
2022-09-11T13:07:57.907Z,100.00
2022-09-11T13:10:33.472Z,100.00
2022-09-11T13:13:02.399Z,100.00
2022-09-11T13:15:33.238Z,100.00
2022-09-11T13:17:59.744Z,100.00
2022-09-11T13:20:26.215Z,100.00
2022-09-11T13:22:57.604Z,100.00
2022-09-11T13:25:27.919Z,100.00
2022-09-11T13:27:59.683Z,100.00
2022-09-11T13:30:26.904Z,100.00
2022-09-11T13:33:07.524Z,100.00
2022-09-11T13:35:34.254Z,100.00
2022-09-11T13:38:10.955Z,100.00
2022-09-11T13:40:47.485Z,100.00
2022-09-11T13:43:20.173Z,100.00
2022-09-11T13:45:46.680Z,100.00
2022-09-11T13:48:20.250Z,100.00
2022-09-11T13:50:48.420Z,100.00
2022-09-11T13:53:14.827Z,100.00
2022-09-11T13:55:45.772Z,100.00
2022-09-11T13:58:26.077Z,100.00
2022-09-11T14:00:52.771Z,100.00
2022-09-11T14:03:29.428Z,100.00
2022-09-11T14:05:58.004Z,100.00
2022-09-11T14:08:35.902Z,100.00
2022-09-11T14:11:11.640Z,100.00
2022-09-11T14:13:51.385Z,100.00
2022-09-11T14:16:32.042Z,100.00
2022-09-11T14:19:11.157Z,100.00
2022-09-11T14:21:38.843Z,100.00
2022-09-11T14:24:16.424Z,100.00
2022-09-11T14:26:42.840Z,100.00
2022-09-11T14:29:12.846Z,100.00
2022-09-11T14:31:40.628Z,100.00
2022-09-11T14:34:10.024Z,100.00
2022-09-11T14:36:47.292Z,100.00
2022-09-11T14:39:23.683Z,100.00
2022-09-11T14:41:50.072Z,100.00
2022-09-11T14:44:16.661Z,100.00
2022-09-11T14:46:43.334Z,100.00
2022-09-11T14:49:10.212Z,100.00
2022-09-11T14:51:37.599Z,100.00
2022-09-11T14:54:08.968Z,100.00
2022-09-11T14:56:35.364Z,100.00
2022-09-11T14:59:01.776Z,100.00
2022-09-11T15:01:28.245Z,100.00
2022-09-11T15:03:55.311Z,100.00
2022-09-11T15:06:21.999Z,100.00
2022-09-11T15:08:48.464Z,100.00
2022-09-11T15:11:15.847Z,100.00
2022-09-11T15:14:04.088Z,100.00
2022-09-11T15:16:30.707Z,100.00
2022-09-11T15:18:57.112Z,100.00
2022-09-11T15:21:23.495Z,100.00
2022-09-11T15:23:50.028Z,100.00
2022-09-11T15:26:16.431Z,100.00
2022-09-11T15:28:42.923Z,100.00
2022-09-11T15:31:11.018Z,100.00
2022-09-11T15:33:37.605Z,100.00
2022-09-11T15:36:05.034Z,100.00
2022-09-11T15:38:32.138Z,100.00
2022-09-11T15:40:58.628Z,100.00
2022-09-11T15:43:26.022Z,100.00
2022-09-11T15:45:52.640Z,100.00
2022-09-11T15:48:19.975Z,100.00
2022-09-11T15:50:46.388Z,100.00
2022-09-11T15:53:13.216Z,100.00
2022-09-11T15:55:39.599Z,100.00
2022-09-11T15:58:06.071Z,100.00
2022-09-11T16:00:33.938Z,100.00
2022-09-11T16:03:00.415Z,100.00
2022-09-11T16:05:26.908Z,100.00
2022-09-11T16:07:53.293Z,100.00
2022-09-11T16:10:20.905Z,100.00
2022-09-11T16:12:47.934Z,100.00
2022-09-11T16:15:17.785Z,100.00
2022-09-11T16:17:44.898Z,100.00
2022-09-11T16:20:12.747Z,100.00
2022-09-11T16:22:39.159Z,100.00
2022-09-11T16:25:05.918Z,100.00
2022-09-11T16:27:34.586Z,100.00
2022-09-11T16:30:41.548Z,100.00
2022-09-11T16:32:48.801Z,100.00
2022-09-11T16:35:15.290Z,100.00
2022-09-11T16:37:41.823Z,100.00
2022-09-11T16:40:09.515Z,100.00
2022-09-11T16:42:36.751Z,100.00
2022-09-11T16:45:03.411Z,100.00
2022-09-11T16:47:30.527Z,100.00
2022-09-11T16:50:12.324Z,100.00
2022-09-11T16:52:39.290Z,100.00
2022-09-11T16:55:07.022Z,100.00
2022-09-11T16:57:35.391Z,100.00
2022-09-11T17:00:02.055Z,100.00
2022-09-11T17:02:28.443Z,100.00
2022-09-11T17:04:54.876Z,100.00
2022-09-11T17:07:21.252Z,100.00
2022-09-11T17:09:48.350Z,100.00
2022-09-11T17:12:17.596Z,100.00
2022-09-11T17:14:44.003Z,100.00
2022-09-11T17:17:10.553Z,100.00
2022-09-11T17:19:36.973Z,100.00
2022-09-11T17:22:03.915Z,100.00
2022-09-11T17:24:32.042Z,100.00
2022-09-11T17:26:58.849Z,100.00
2022-09-11T17:29:25.232Z,100.00
2022-09-11T17:32:05.119Z,100.00
2022-09-11T17:34:38.086Z,100.00
2022-09-11T17:37:04.981Z,100.00
2022-09-11T17:39:31.381Z,100.00
2022-09-11T17:41:57.757Z,100.00
2022-09-11T17:44:24.758Z,100.00
2022-09-11T17:46:52.108Z,100.00
2022-09-11T17:49:18.497Z,100.00
2022-09-11T17:51:44.864Z,100.00
2022-09-11T17:54:11.241Z,100.00
2022-09-11T17:56:37.706Z,100.00
2022-09-11T17:59:04.060Z,100.00
2022-09-11T18:01:31.609Z,100.00
2022-09-11T18:03:58.516Z,100.00
2022-09-11T18:06:33.974Z,100.00
2022-09-11T18:09:05.963Z,100.00
2022-09-11T18:11:32.656Z,100.00
2022-09-11T18:14:00.050Z,100.00
2022-09-11T18:16:26.576Z,100.00
2022-09-11T18:18:53.053Z,100.00
2022-09-11T18:21:19.452Z,100.00
2022-09-11T18:23:46.502Z,100.00
2022-09-11T18:26:25.641Z,100.00
2022-09-11T18:29:14.331Z,100.00
2022-09-11T18:31:45.015Z,100.00
2022-09-11T18:34:16.783Z,100.00
2022-09-11T18:36:43.423Z,100.00
2022-09-11T18:39:10.086Z,100.00
2022-09-11T18:41:36.945Z,100.00
2022-09-11T18:44:06.395Z,100.00
2022-09-11T18:46:32.934Z,100.00
2022-09-11T18:49:00.012Z,100.00
2022-09-11T18:51:27.054Z,100.00
2022-09-11T18:53:54.314Z,100.00
2022-09-11T18:56:22.575Z,100.00
2022-09-11T18:58:50.427Z,100.00
2022-09-11T19:01:17.899Z,100.00
2022-09-11T19:03:44.436Z,100.00
2022-09-11T19:06:14.043Z,100.00
2022-09-11T19:08:41.452Z,100.00
2022-09-11T19:11:09.277Z,100.00
2022-09-11T19:13:36.461Z,100.00
2022-09-11T19:16:04.182Z,100.00
2022-09-11T19:18:31.495Z,100.00
2022-09-11T19:21:02.952Z,100.00
2022-09-11T19:23:33.552Z,100.00
2022-09-11T19:26:22.764Z,100.00
2022-09-11T19:28:49.619Z,100.00
2022-09-11T19:31:18.172Z,100.00
2022-09-11T19:33:44.631Z,100.00
2022-09-11T19:36:16.671Z,100.00
2022-09-11T19:38:44.098Z,100.00
2022-09-11T19:41:12.822Z,100.00
2022-09-11T19:43:40.918Z,100.00
2022-09-11T19:46:09.306Z,100.00
2022-09-11T19:48:39.068Z,100.00
2022-09-11T19:51:09.884Z,100.00
2022-09-11T19:53:37.116Z,100.00
2022-09-11T19:56:03.551Z,100.00
2022-09-11T19:58:30.092Z,100.00
2022-09-11T20:00:56.594Z,100.00
2022-09-11T20:03:23.072Z,100.00
2022-09-11T20:05:49.874Z,100.00
2022-09-11T20:08:17.217Z,100.00
2022-09-11T20:10:45.377Z,100.00
2022-09-11T20:13:11.789Z,100.00
2022-09-11T20:15:38.741Z,100.00
2022-09-11T20:18:05.225Z,100.00
2022-09-11T20:20:32.599Z,100.00
2022-09-11T20:23:00.427Z,100.00
2022-09-11T20:25:27.136Z,100.00
2022-09-11T20:27:53.656Z,100.00
2022-09-11T20:30:20.051Z,100.00
2022-09-11T20:32:46.534Z,100.00
2022-09-11T20:35:12.931Z,100.00
2022-09-11T20:37:39.322Z,100.00
2022-09-11T20:40:07.316Z,100.00
2022-09-11T20:42:33.742Z,100.00
2022-09-11T20:45:00.680Z,100.00
2022-09-11T20:47:27.576Z,100.00
2022-09-11T20:49:53.962Z,100.00
2022-09-11T20:52:20.396Z,100.00
2022-09-11T20:54:48.906Z,89.51
2022-09-11T20:57:15.274Z,82.99
2022-09-11T20:59:43.313Z,81.12
2022-09-11T21:02:10.973Z,82.43
2022-09-11T21:04:37.739Z,79.78
2022-09-11T21:07:04.211Z,93.18
2022-09-11T21:09:30.898Z,55.66
2022-09-11T21:11:57.292Z,51.08
2022-09-11T21:14:23.703Z,50.15
2022-09-11T21:16:50.088Z,49.34
2022-09-11T21:19:16.725Z,48.42
2022-09-11T21:21:43.172Z,37.49
2022-09-11T21:24:11.631Z,32.69
2022-09-11T21:26:38.052Z,17.41
2022-09-11T21:29:06.487Z,19.57
2022-09-11T21:31:33.243Z,22.18
2022-09-11T21:33:59.849Z,31.48
2022-09-11T21:36:26.431Z,30.22
2022-09-11T21:38:53.191Z,38.74
2022-09-11T21:41:19.612Z,39.10
2022-09-11T21:43:46.330Z,34.71
2022-09-11T21:46:13.042Z,41.26
2022-09-11T21:48:40.425Z,38.67
2022-09-11T21:51:10.031Z,30.94
2022-09-11T21:53:37.531Z,32.99
2022-09-11T21:56:04.027Z,36.26
2022-09-11T21:58:30.986Z,31.04
2022-09-11T22:01:02.530Z,31.43
2022-09-11T22:03:29.008Z,31.12
2022-09-11T22:05:55.608Z,33.10
2022-09-11T22:08:22.177Z,28.84
2022-09-11T22:10:49.857Z,24.70
2022-09-11T22:13:19.728Z,22.88
2022-09-11T22:15:49.218Z,23.60
2022-09-11T22:18:16.180Z,22.59
2022-09-11T22:20:42.863Z,23.39
2022-09-11T22:23:13.453Z,22.44
2022-09-11T22:25:40.802Z,17.27
2022-09-11T22:28:07.312Z,17.22
2022-09-11T22:30:33.723Z,16.87
2022-09-11T22:33:00.333Z,19.84
2022-09-11T22:35:27.079Z,21.09
2022-09-11T22:37:53.457Z,22.42
2022-09-11T22:40:19.821Z,23.01
2022-09-11T22:42:46.213Z,20.30
2022-09-11T22:45:12.584Z,20.20
2022-09-11T22:47:38.959Z,23.99
2022-09-11T22:50:05.906Z,22.32
2022-09-11T22:52:32.300Z,20.08
2022-09-11T22:54:58.679Z,20.04
2022-09-11T22:57:28.859Z,22.77
2022-09-11T22:59:55.974Z,21.59
2022-09-11T23:02:22.398Z,19.83
2022-09-11T23:05:07.555Z,22.23
2022-09-11T23:07:34.730Z,23.13
2022-09-11T23:10:01.791Z,21.58
2022-09-11T23:12:28.237Z,20.16
2022-09-11T23:14:54.673Z,19.98
2022-09-11T23:17:21.116Z,21.26
2022-09-11T23:19:48.026Z,22.49
2022-09-11T23:22:14.409Z,18.37
2022-09-11T23:24:40.805Z,3.42
2022-09-11T23:27:07.191Z,2.86
2022-09-11T23:29:33.575Z,4.29
2022-09-11T23:32:00.140Z,9.77
2022-09-11T23:34:26.526Z,11.83
2022-09-11T23:36:52.996Z,12.63
2022-09-11T23:39:19.390Z,14.19
2022-09-11T23:41:45.847Z,16.36
2022-09-11T23:44:12.253Z,17.68
2022-09-11T23:46:38.634Z,15.88
2022-09-11T23:49:06.367Z,16.26
2022-09-11T23:51:32.813Z,16.98
2022-09-11T23:53:59.185Z,17.17
2022-09-11T23:56:25.613Z,18.93
2022-09-11T23:58:52.230Z,19.62
